sensor_id;sensor_type;location;lat;lon;timestamp;temperature;humidity
7902;DHT22;3996;49.674;10.716;2023-01-10T00:01:47;5.90;62.10
7902;DHT22;3996;49.674;10.716;2023-01-10T00:04:12;5.90;62.30
7902;DHT22;3996;49.674;10.716;2023-01-10T00:06:38;5.90;61.50
7902;DHT22;3996;49.674;10.716;2023-01-10T00:09:04;5.90;61.40
7902;DHT22;3996;49.674;10.716;2023-01-10T00:11:29;5.90;61.50
7902;DHT22;3996;49.674;10.716;2023-01-10T00:14:13;5.90;61.20
7902;DHT22;3996;49.674;10.716;2023-01-10T00:16:39;5.90;61.90
7902;DHT22;3996;49.674;10.716;2023-01-10T00:19:07;5.80;61.60
7902;DHT22;3996;49.674;10.716;2023-01-10T00:21:35;5.80;62.40
7902;DHT22;3996;49.674;10.716;2023-01-10T00:24:01;5.80;61.90
7902;DHT22;3996;49.674;10.716;2023-01-10T00:26:41;5.90;61.70
7902;DHT22;3996;49.674;10.716;2023-01-10T00:29:07;5.90;61.50
7902;DHT22;3996;49.674;10.716;2023-01-10T00:31:33;6.00;61.10
7902;DHT22;3996;49.674;10.716;2023-01-10T00:33:58;5.90;61.40
7902;DHT22;3996;49.674;10.716;2023-01-10T00:36:24;6.00;61.00
7902;DHT22;3996;49.674;10.716;2023-01-10T00:38:49;6.00;61.30
7902;DHT22;3996;49.674;10.716;2023-01-10T00:41:15;5.90;61.10
7902;DHT22;3996;49.674;10.716;2023-01-10T00:44:04;5.80;62.00
7902;DHT22;3996;49.674;10.716;2023-01-10T00:46:30;5.80;62.90
7902;DHT22;3996;49.674;10.716;2023-01-10T00:48:56;5.90;62.30
7902;DHT22;3996;49.674;10.716;2023-01-10T00:51:22;5.90;61.90
7902;DHT22;3996;49.674;10.716;2023-01-10T00:53:47;5.90;62.10
7902;DHT22;3996;49.674;10.716;2023-01-10T00:56:13;5.90;62.30
7902;DHT22;3996;49.674;10.716;2023-01-10T00:58:38;5.90;62.50
7902;DHT22;3996;49.674;10.716;2023-01-10T01:01:04;5.90;62.50
7902;DHT22;3996;49.674;10.716;2023-01-10T01:03:30;5.90;62.50
7902;DHT22;3996;49.674;10.716;2023-01-10T01:05:55;5.90;62.70
7902;DHT22;3996;49.674;10.716;2023-01-10T01:08:21;5.90;63.10
7902;DHT22;3996;49.674;10.716;2023-01-10T01:10:46;6.00;62.10
7902;DHT22;3996;49.674;10.716;2023-01-10T01:13:17;5.90;63.20
7902;DHT22;3996;49.674;10.716;2023-01-10T01:15:44;5.90;63.20
7902;DHT22;3996;49.674;10.716;2023-01-10T01:18:17;5.90;63.20
7902;DHT22;3996;49.674;10.716;2023-01-10T01:20:44;6.00;63.40
7902;DHT22;3996;49.674;10.716;2023-01-10T01:23:13;6.00;63.30
7902;DHT22;3996;49.674;10.716;2023-01-10T01:25:39;5.90;63.20
7902;DHT22;3996;49.674;10.716;2023-01-10T01:28:05;6.00;63.30
7902;DHT22;3996;49.674;10.716;2023-01-10T01:30:31;6.10;63.40
7902;DHT22;3996;49.674;10.716;2023-01-10T01:32:56;6.00;63.50
7902;DHT22;3996;49.674;10.716;2023-01-10T01:35:22;6.00;64.10
7902;DHT22;3996;49.674;10.716;2023-01-10T01:37:49;6.00;64.70
7902;DHT22;3996;49.674;10.716;2023-01-10T01:40:18;5.90;64.90
7902;DHT22;3996;49.674;10.716;2023-01-10T01:42:45;5.90;64.80
7902;DHT22;3996;49.674;10.716;2023-01-10T01:47:46;6.00;65.30
7902;DHT22;3996;49.674;10.716;2023-01-10T01:50:21;6.00;64.90
7902;DHT22;3996;49.674;10.716;2023-01-10T01:52:52;6.00;64.60
7902;DHT22;3996;49.674;10.716;2023-01-10T01:55:19;6.00;64.30
7902;DHT22;3996;49.674;10.716;2023-01-10T01:57:46;6.00;64.10
7902;DHT22;3996;49.674;10.716;2023-01-10T02:00:13;5.90;64.30
7902;DHT22;3996;49.674;10.716;2023-01-10T02:02:45;6.00;65.50
7902;DHT22;3996;49.674;10.716;2023-01-10T02:05:14;6.00;65.20
7902;DHT22;3996;49.674;10.716;2023-01-10T02:07:44;5.90;65.80
7902;DHT22;3996;49.674;10.716;2023-01-10T02:10:24;5.90;65.50
7902;DHT22;3996;49.674;10.716;2023-01-10T02:12:54;5.90;65.90
7902;DHT22;3996;49.674;10.716;2023-01-10T02:15:20;6.00;65.30
7902;DHT22;3996;49.674;10.716;2023-01-10T02:17:47;6.00;65.10
7902;DHT22;3996;49.674;10.716;2023-01-10T02:20:17;5.90;65.70
7902;DHT22;3996;49.674;10.716;2023-01-10T02:34:31;6.00;66.30
7902;DHT22;3996;49.674;10.716;2023-01-10T02:37:55;6.00;66.00
7902;DHT22;3996;49.674;10.716;2023-01-10T02:40:28;6.00;66.10
7902;DHT22;3996;49.674;10.716;2023-01-10T02:43:13;6.00;67.10
7902;DHT22;3996;49.674;10.716;2023-01-10T02:45:58;6.00;67.80
7902;DHT22;3996;49.674;10.716;2023-01-10T02:48:24;6.00;66.50
7902;DHT22;3996;49.674;10.716;2023-01-10T02:53:30;6.00;66.50
7902;DHT22;3996;49.674;10.716;2023-01-10T03:12:00;6.00;67.40
7902;DHT22;3996;49.674;10.716;2023-01-10T03:14:29;5.90;68.10
7902;DHT22;3996;49.674;10.716;2023-01-10T03:16:59;5.90;67.10
7902;DHT22;3996;49.674;10.716;2023-01-10T03:19:30;6.00;66.90
7902;DHT22;3996;49.674;10.716;2023-01-10T03:21:58;6.00;66.20
7902;DHT22;3996;49.674;10.716;2023-01-10T03:24:38;5.90;67.00
7902;DHT22;3996;49.674;10.716;2023-01-10T03:30:23;5.80;67.00
7902;DHT22;3996;49.674;10.716;2023-01-10T03:32:25;5.80;66.70
7902;DHT22;3996;49.674;10.716;2023-01-10T03:34:53;5.80;67.10
7902;DHT22;3996;49.674;10.716;2023-01-10T03:37:43;5.70;66.60
7902;DHT22;3996;49.674;10.716;2023-01-10T03:40:35;5.70;67.20
7902;DHT22;3996;49.674;10.716;2023-01-10T03:43:14;5.80;65.80
7902;DHT22;3996;49.674;10.716;2023-01-10T03:46:08;5.80;66.50
7902;DHT22;3996;49.674;10.716;2023-01-10T03:48:37;5.90;66.20
7902;DHT22;3996;49.674;10.716;2023-01-10T03:51:05;5.80;66.90
7902;DHT22;3996;49.674;10.716;2023-01-10T03:53:32;5.80;66.40
7902;DHT22;3996;49.674;10.716;2023-01-10T03:55:59;5.90;66.10
7902;DHT22;3996;49.674;10.716;2023-01-10T03:58:27;5.90;65.60
7902;DHT22;3996;49.674;10.716;2023-01-10T04:00:52;5.90;65.30
7902;DHT22;3996;49.674;10.716;2023-01-10T04:03:18;5.80;65.40
7902;DHT22;3996;49.674;10.716;2023-01-10T04:05:43;5.90;65.80
7902;DHT22;3996;49.674;10.716;2023-01-10T04:08:09;6.00;66.20
7902;DHT22;3996;49.674;10.716;2023-01-10T04:10:34;6.00;66.00
7902;DHT22;3996;49.674;10.716;2023-01-10T04:13:02;5.90;66.10
7902;DHT22;3996;49.674;10.716;2023-01-10T04:15:28;5.90;66.60
7902;DHT22;3996;49.674;10.716;2023-01-10T04:17:54;5.90;66.70
7902;DHT22;3996;49.674;10.716;2023-01-10T04:20:21;5.90;67.10
7902;DHT22;3996;49.674;10.716;2023-01-10T04:22:47;5.90;67.10
7902;DHT22;3996;49.674;10.716;2023-01-10T04:25:15;5.90;66.90
7902;DHT22;3996;49.674;10.716;2023-01-10T04:27:41;5.90;67.70
7902;DHT22;3996;49.674;10.716;2023-01-10T04:30:07;5.90;65.80
7902;DHT22;3996;49.674;10.716;2023-01-10T04:32:33;5.90;65.50
7902;DHT22;3996;49.674;10.716;2023-01-10T04:34:58;6.00;65.50
7902;DHT22;3996;49.674;10.716;2023-01-10T04:37:24;6.10;64.80
7902;DHT22;3996;49.674;10.716;2023-01-10T04:39:50;6.00;65.40
7902;DHT22;3996;49.674;10.716;2023-01-10T04:42:16;6.00;65.80
7902;DHT22;3996;49.674;10.716;2023-01-10T04:44:42;6.00;65.30
7902;DHT22;3996;49.674;10.716;2023-01-10T04:47:07;6.00;63.30
7902;DHT22;3996;49.674;10.716;2023-01-10T04:49:33;5.90;63.70
7902;DHT22;3996;49.674;10.716;2023-01-10T04:51:59;5.90;64.10
7902;DHT22;3996;49.674;10.716;2023-01-10T04:54:24;5.90;64.00
7902;DHT22;3996;49.674;10.716;2023-01-10T04:56:50;5.90;63.70
7902;DHT22;3996;49.674;10.716;2023-01-10T04:59:16;5.90;63.70
7902;DHT22;3996;49.674;10.716;2023-01-10T05:01:42;5.90;62.30
7902;DHT22;3996;49.674;10.716;2023-01-10T05:04:07;6.00;62.00
7902;DHT22;3996;49.674;10.716;2023-01-10T05:06:33;6.00;61.60
7902;DHT22;3996;49.674;10.716;2023-01-10T05:08:59;5.90;61.90
7902;DHT22;3996;49.674;10.716;2023-01-10T05:11:24;6.00;61.90
7902;DHT22;3996;49.674;10.716;2023-01-10T05:13:50;6.00;61.00
7902;DHT22;3996;49.674;10.716;2023-01-10T05:16:16;6.00;60.50
7902;DHT22;3996;49.674;10.716;2023-01-10T05:18:42;6.00;59.60
7902;DHT22;3996;49.674;10.716;2023-01-10T05:21:10;6.00;60.20
7902;DHT22;3996;49.674;10.716;2023-01-10T05:23:36;6.00;59.20
7902;DHT22;3996;49.674;10.716;2023-01-10T05:26:09;6.00;59.30
7902;DHT22;3996;49.674;10.716;2023-01-10T05:28:35;6.00;59.30
7902;DHT22;3996;49.674;10.716;2023-01-10T05:31:01;6.00;59.00
7902;DHT22;3996;49.674;10.716;2023-01-10T05:33:27;6.00;58.60
7902;DHT22;3996;49.674;10.716;2023-01-10T05:35:53;6.00;58.40
7902;DHT22;3996;49.674;10.716;2023-01-10T05:38:18;6.00;59.30
7902;DHT22;3996;49.674;10.716;2023-01-10T05:40:44;6.00;59.30
7902;DHT22;3996;49.674;10.716;2023-01-10T05:43:09;6.00;59.30
7902;DHT22;3996;49.674;10.716;2023-01-10T05:45:36;6.00;59.50
7902;DHT22;3996;49.674;10.716;2023-01-10T05:48:02;6.00;59.70
7902;DHT22;3996;49.674;10.716;2023-01-10T05:50:28;5.90;59.70
7902;DHT22;3996;49.674;10.716;2023-01-10T05:52:53;5.90;60.00
7902;DHT22;3996;49.674;10.716;2023-01-10T05:55:19;5.90;60.30
7902;DHT22;3996;49.674;10.716;2023-01-10T05:57:44;5.90;59.40
7902;DHT22;3996;49.674;10.716;2023-01-10T06:00:10;5.90;59.70
7902;DHT22;3996;49.674;10.716;2023-01-10T06:02:36;5.90;59.20
7902;DHT22;3996;49.674;10.716;2023-01-10T06:05:02;5.90;59.20
7902;DHT22;3996;49.674;10.716;2023-01-10T06:07:27;5.90;60.00
7902;DHT22;3996;49.674;10.716;2023-01-10T06:09:53;5.80;60.20
7902;DHT22;3996;49.674;10.716;2023-01-10T06:12:19;5.80;59.50
7902;DHT22;3996;49.674;10.716;2023-01-10T06:14:45;5.80;59.30
7902;DHT22;3996;49.674;10.716;2023-01-10T06:17:11;5.80;58.70
7902;DHT22;3996;49.674;10.716;2023-01-10T06:19:37;5.90;60.40
7902;DHT22;3996;49.674;10.716;2023-01-10T06:22:03;5.90;59.70
7902;DHT22;3996;49.674;10.716;2023-01-10T06:24:28;5.90;58.90
7902;DHT22;3996;49.674;10.716;2023-01-10T06:26:54;5.80;59.10
7902;DHT22;3996;49.674;10.716;2023-01-10T06:29:19;5.80;59.70
7902;DHT22;3996;49.674;10.716;2023-01-10T06:31:45;5.80;59.50
7902;DHT22;3996;49.674;10.716;2023-01-10T06:34:11;5.80;59.60
7902;DHT22;3996;49.674;10.716;2023-01-10T06:36:36;5.80;59.80
7902;DHT22;3996;49.674;10.716;2023-01-10T06:39:02;5.70;59.90
7902;DHT22;3996;49.674;10.716;2023-01-10T06:41:28;5.70;59.90
7902;DHT22;3996;49.674;10.716;2023-01-10T06:43:53;5.70;60.00
7902;DHT22;3996;49.674;10.716;2023-01-10T06:46:19;5.70;60.00
7902;DHT22;3996;49.674;10.716;2023-01-10T06:48:46;5.60;60.60
7902;DHT22;3996;49.674;10.716;2023-01-10T06:51:15;5.70;60.60
7902;DHT22;3996;49.674;10.716;2023-01-10T06:53:41;5.70;60.30
7902;DHT22;3996;49.674;10.716;2023-01-10T06:56:07;5.60;60.30
7902;DHT22;3996;49.674;10.716;2023-01-10T06:58:34;5.60;60.20
7902;DHT22;3996;49.674;10.716;2023-01-10T07:01:12;5.60;60.40
7902;DHT22;3996;49.674;10.716;2023-01-10T07:03:38;5.60;60.50
7902;DHT22;3996;49.674;10.716;2023-01-10T07:06:06;5.60;60.30
7902;DHT22;3996;49.674;10.716;2023-01-10T07:08:40;5.60;61.10
7902;DHT22;3996;49.674;10.716;2023-01-10T07:11:07;5.60;60.80
7902;DHT22;3996;49.674;10.716;2023-01-10T07:13:33;5.60;60.00
7902;DHT22;3996;49.674;10.716;2023-01-10T07:16:03;5.70;60.80
7902;DHT22;3996;49.674;10.716;2023-01-10T07:18:29;5.70;60.30
7902;DHT22;3996;49.674;10.716;2023-01-10T07:20:56;5.60;61.40
7902;DHT22;3996;49.674;10.716;2023-01-10T07:23:22;5.60;61.50
7902;DHT22;3996;49.674;10.716;2023-01-10T07:25:48;5.70;61.40
7902;DHT22;3996;49.674;10.716;2023-01-10T07:28:13;5.70;61.50
7902;DHT22;3996;49.674;10.716;2023-01-10T07:30:39;5.70;61.00
7902;DHT22;3996;49.674;10.716;2023-01-10T07:33:04;5.80;60.70
7902;DHT22;3996;49.674;10.716;2023-01-10T07:35:30;5.80;61.30
7902;DHT22;3996;49.674;10.716;2023-01-10T07:37:59;5.80;62.40
7902;DHT22;3996;49.674;10.716;2023-01-10T07:40:26;5.70;60.80
7902;DHT22;3996;49.674;10.716;2023-01-10T07:42:58;5.80;59.70
7902;DHT22;3996;49.674;10.716;2023-01-10T07:45:25;5.80;60.00
7902;DHT22;3996;49.674;10.716;2023-01-10T07:47:55;5.80;59.40
7902;DHT22;3996;49.674;10.716;2023-01-10T07:50:21;5.70;59.70
7902;DHT22;3996;49.674;10.716;2023-01-10T07:52:47;5.80;60.70
7902;DHT22;3996;49.674;10.716;2023-01-10T07:55:12;5.80;59.80
7902;DHT22;3996;49.674;10.716;2023-01-10T07:57:38;5.80;59.80
7902;DHT22;3996;49.674;10.716;2023-01-10T08:00:04;5.80;59.50
7902;DHT22;3996;49.674;10.716;2023-01-10T08:02:30;5.80;60.10
7902;DHT22;3996;49.674;10.716;2023-01-10T08:04:55;5.80;60.20
7902;DHT22;3996;49.674;10.716;2023-01-10T08:07:21;5.80;60.50
7902;DHT22;3996;49.674;10.716;2023-01-10T08:09:46;5.80;60.10
7902;DHT22;3996;49.674;10.716;2023-01-10T08:12:12;5.80;59.30
7902;DHT22;3996;49.674;10.716;2023-01-10T08:14:38;5.80;59.50
7902;DHT22;3996;49.674;10.716;2023-01-10T08:17:03;5.90;60.00
7902;DHT22;3996;49.674;10.716;2023-01-10T08:19:29;5.90;60.10
7902;DHT22;3996;49.674;10.716;2023-01-10T08:21:54;5.90;59.20
7902;DHT22;3996;49.674;10.716;2023-01-10T08:24:20;5.90;59.00
7902;DHT22;3996;49.674;10.716;2023-01-10T08:26:46;5.90;58.70
7902;DHT22;3996;49.674;10.716;2023-01-10T08:29:11;5.90;59.40
7902;DHT22;3996;49.674;10.716;2023-01-10T08:31:39;6.00;59.30
7902;DHT22;3996;49.674;10.716;2023-01-10T08:34:05;5.90;59.00
7902;DHT22;3996;49.674;10.716;2023-01-10T08:36:31;5.90;59.50
7902;DHT22;3996;49.674;10.716;2023-01-10T08:38:56;5.90;59.50
7902;DHT22;3996;49.674;10.716;2023-01-10T08:41:22;5.90;59.30
7902;DHT22;3996;49.674;10.716;2023-01-10T08:43:48;5.90;59.10
7902;DHT22;3996;49.674;10.716;2023-01-10T08:46:15;5.90;58.90
7902;DHT22;3996;49.674;10.716;2023-01-10T08:48:40;6.00;59.30
7902;DHT22;3996;49.674;10.716;2023-01-10T08:51:07;6.00;59.30
7902;DHT22;3996;49.674;10.716;2023-01-10T08:53:33;6.10;59.40
7902;DHT22;3996;49.674;10.716;2023-01-10T08:55:59;6.10;59.20
7902;DHT22;3996;49.674;10.716;2023-01-10T08:58:25;6.10;59.40
7902;DHT22;3996;49.674;10.716;2023-01-10T09:00:50;6.10;59.30
7902;DHT22;3996;49.674;10.716;2023-01-10T09:03:16;6.10;59.40
7902;DHT22;3996;49.674;10.716;2023-01-10T09:05:43;6.20;58.40
7902;DHT22;3996;49.674;10.716;2023-01-10T09:08:09;6.20;58.40
7902;DHT22;3996;49.674;10.716;2023-01-10T09:10:34;6.10;58.50
7902;DHT22;3996;49.674;10.716;2023-01-10T09:13:00;6.20;58.40
7902;DHT22;3996;49.674;10.716;2023-01-10T09:15:34;6.10;58.20
7902;DHT22;3996;49.674;10.716;2023-01-10T09:18:03;6.10;57.70
7902;DHT22;3996;49.674;10.716;2023-01-10T09:20:34;6.20;58.00
7902;DHT22;3996;49.674;10.716;2023-01-10T09:23:08;6.10;57.70
7902;DHT22;3996;49.674;10.716;2023-01-10T09:25:34;6.20;58.30
7902;DHT22;3996;49.674;10.716;2023-01-10T09:28:01;6.20;58.80
7902;DHT22;3996;49.674;10.716;2023-01-10T09:30:29;6.20;57.60
7902;DHT22;3996;49.674;10.716;2023-01-10T09:32:56;6.20;58.10
7902;DHT22;3996;49.674;10.716;2023-01-10T09:35:23;6.30;57.70
7902;DHT22;3996;49.674;10.716;2023-01-10T09:37:52;6.30;57.20
7902;DHT22;3996;49.674;10.716;2023-01-10T09:48:16;6.50;55.00
7902;DHT22;3996;49.674;10.716;2023-01-10T09:51:22;6.70;55.10
7902;DHT22;3996;49.674;10.716;2023-01-10T09:53:56;6.80;53.90
7902;DHT22;3996;49.674;10.716;2023-01-10T09:56:24;7.10;53.50
7902;DHT22;3996;49.674;10.716;2023-01-10T09:58:50;7.20;52.00
7902;DHT22;3996;49.674;10.716;2023-01-10T10:01:22;7.00;51.80
7902;DHT22;3996;49.674;10.716;2023-01-10T10:06:21;6.70;54.20
7902;DHT22;3996;49.674;10.716;2023-01-10T10:08:48;6.60;54.40
7902;DHT22;3996;49.674;10.716;2023-01-10T10:14:06;6.60;53.50
7902;DHT22;3996;49.674;10.716;2023-01-10T10:25:37;6.80;53.00
7902;DHT22;3996;49.674;10.716;2023-01-10T10:36:14;7.10;51.50
7902;DHT22;3996;49.674;10.716;2023-01-10T10:38:45;7.20;51.00
7902;DHT22;3996;49.674;10.716;2023-01-10T10:41:17;7.40;49.80
7902;DHT22;3996;49.674;10.716;2023-01-10T10:43:50;7.60;49.50
7902;DHT22;3996;49.674;10.716;2023-01-10T10:46:17;7.70;47.00
7902;DHT22;3996;49.674;10.716;2023-01-10T10:48:55;7.70;46.30
7902;DHT22;3996;49.674;10.716;2023-01-10T10:51:33;8.10;45.90
7902;DHT22;3996;49.674;10.716;2023-01-10T10:54:01;8.20;44.70
7902;DHT22;3996;49.674;10.716;2023-01-10T10:56:27;8.20;42.80
7902;DHT22;3996;49.674;10.716;2023-01-10T10:58:56;8.00;43.10
7902;DHT22;3996;49.674;10.716;2023-01-10T11:01:22;7.90;43.30
7902;DHT22;3996;49.674;10.716;2023-01-10T11:03:55;7.80;44.30
7902;DHT22;3996;49.674;10.716;2023-01-10T11:06:23;7.80;44.90
7902;DHT22;3996;49.674;10.716;2023-01-10T11:08:53;7.60;44.50
7902;DHT22;3996;49.674;10.716;2023-01-10T11:11:42;7.60;45.10
7902;DHT22;3996;49.674;10.716;2023-01-10T11:14:10;7.40;46.50
7902;DHT22;3996;49.674;10.716;2023-01-10T11:16:41;7.40;45.80
7902;DHT22;3996;49.674;10.716;2023-01-10T11:19:21;7.30;46.20
7902;DHT22;3996;49.674;10.716;2023-01-10T11:21:56;7.20;47.10
7902;DHT22;3996;49.674;10.716;2023-01-10T11:24:30;7.20;48.10
7902;DHT22;3996;49.674;10.716;2023-01-10T11:26:58;7.10;48.20
7902;DHT22;3996;49.674;10.716;2023-01-10T11:29:26;7.10;47.80
7902;DHT22;3996;49.674;10.716;2023-01-10T11:31:55;7.10;47.70
7902;DHT22;3996;49.674;10.716;2023-01-10T11:34:30;7.10;49.00
7902;DHT22;3996;49.674;10.716;2023-01-10T11:37:03;7.10;49.20
7902;DHT22;3996;49.674;10.716;2023-01-10T11:39:30;7.10;48.90
7902;DHT22;3996;49.674;10.716;2023-01-10T11:41:56;7.00;48.90
7902;DHT22;3996;49.674;10.716;2023-01-10T11:44:28;7.10;49.00
7902;DHT22;3996;49.674;10.716;2023-01-10T11:47:04;7.00;48.00
7902;DHT22;3996;49.674;10.716;2023-01-10T11:49:38;7.00;48.20
7902;DHT22;3996;49.674;10.716;2023-01-10T11:54:44;7.00;47.50
7902;DHT22;3996;49.674;10.716;2023-01-10T11:57:20;7.00;47.60
7902;DHT22;3996;49.674;10.716;2023-01-10T11:59:56;7.00;47.60
7902;DHT22;3996;49.674;10.716;2023-01-10T12:02:24;7.00;47.60
7902;DHT22;3996;49.674;10.716;2023-01-10T12:04:51;7.00;47.60
7902;DHT22;3996;49.674;10.716;2023-01-10T12:07:18;7.10;47.70
7902;DHT22;3996;49.674;10.716;2023-01-10T12:09:54;7.00;46.60
7902;DHT22;3996;49.674;10.716;2023-01-10T12:12:23;7.00;46.90
7902;DHT22;3996;49.674;10.716;2023-01-10T12:14:50;6.90;47.60
7902;DHT22;3996;49.674;10.716;2023-01-10T12:17:26;6.80;48.80
7902;DHT22;3996;49.674;10.716;2023-01-10T12:19:53;6.80;49.60
7902;DHT22;3996;49.674;10.716;2023-01-10T12:22:46;6.70;51.20
7902;DHT22;3996;49.674;10.716;2023-01-10T12:25:23;6.60;51.20
7902;DHT22;3996;49.674;10.716;2023-01-10T12:27:52;6.70;51.50
7902;DHT22;3996;49.674;10.716;2023-01-10T12:30:33;6.80;51.80
7902;DHT22;3996;49.674;10.716;2023-01-10T12:33:05;6.90;51.20
7902;DHT22;3996;49.674;10.716;2023-01-10T12:38:08;7.10;50.10
7902;DHT22;3996;49.674;10.716;2023-01-10T12:40:48;7.10;50.40
7902;DHT22;3996;49.674;10.716;2023-01-10T12:43:17;7.10;48.70
7902;DHT22;3996;49.674;10.716;2023-01-10T12:46:38;7.10;49.10
7902;DHT22;3996;49.674;10.716;2023-01-10T12:49:23;7.20;48.40
7902;DHT22;3996;49.674;10.716;2023-01-10T12:51:52;7.10;48.50
7902;DHT22;3996;49.674;10.716;2023-01-10T12:54:22;7.00;47.60
7902;DHT22;3996;49.674;10.716;2023-01-10T12:56:48;7.00;48.00
7902;DHT22;3996;49.674;10.716;2023-01-10T12:59:22;7.00;47.80
7902;DHT22;3996;49.674;10.716;2023-01-10T13:01:57;7.00;47.10
7902;DHT22;3996;49.674;10.716;2023-01-10T13:04:27;7.00;47.30
7902;DHT22;3996;49.674;10.716;2023-01-10T13:06:54;7.00;47.20
7902;DHT22;3996;49.674;10.716;2023-01-10T13:09:24;7.00;47.20
7902;DHT22;3996;49.674;10.716;2023-01-10T13:12:05;7.00;46.50
7902;DHT22;3996;49.674;10.716;2023-01-10T13:14:40;7.00;46.60
7902;DHT22;3996;49.674;10.716;2023-01-10T13:20:27;7.10;45.30
7902;DHT22;3996;49.674;10.716;2023-01-10T13:22:58;7.20;46.00
7902;DHT22;3996;49.674;10.716;2023-01-10T13:25:34;7.10;45.80
7902;DHT22;3996;49.674;10.716;2023-01-10T13:28:18;7.10;45.10
7902;DHT22;3996;49.674;10.716;2023-01-10T13:30:51;7.00;45.40
7902;DHT22;3996;49.674;10.716;2023-01-10T13:33:24;7.00;44.60
7902;DHT22;3996;49.674;10.716;2023-01-10T13:35:53;7.00;44.90
7902;DHT22;3996;49.674;10.716;2023-01-10T13:38:44;7.00;45.80
7902;DHT22;3996;49.674;10.716;2023-01-10T13:41:12;7.00;45.60
7902;DHT22;3996;49.674;10.716;2023-01-10T13:46:31;6.90;45.50
7902;DHT22;3996;49.674;10.716;2023-01-10T13:51:25;6.90;45.70
7902;DHT22;3996;49.674;10.716;2023-01-10T13:56:41;6.80;47.00
7902;DHT22;3996;49.674;10.716;2023-01-10T14:02:25;6.80;47.40
7902;DHT22;3996;49.674;10.716;2023-01-10T14:05:06;6.70;47.30
7902;DHT22;3996;49.674;10.716;2023-01-10T14:07:41;6.70;47.30
7902;DHT22;3996;49.674;10.716;2023-01-10T14:10:17;6.70;47.50
7902;DHT22;3996;49.674;10.716;2023-01-10T14:13:01;6.70;49.20
7902;DHT22;3996;49.674;10.716;2023-01-10T14:15:41;6.70;50.80
7902;DHT22;3996;49.674;10.716;2023-01-10T14:18:22;6.80;52.20
7902;DHT22;3996;49.674;10.716;2023-01-10T14:21:01;6.70;51.60
7902;DHT22;3996;49.674;10.716;2023-01-10T14:23:34;6.70;52.20
7902;DHT22;3996;49.674;10.716;2023-01-10T14:26:00;6.70;50.50
7902;DHT22;3996;49.674;10.716;2023-01-10T14:28:29;6.60;51.20
7902;DHT22;3996;49.674;10.716;2023-01-10T14:33:34;6.60;50.20
7902;DHT22;3996;49.674;10.716;2023-01-10T14:36:08;6.50;51.20
7902;DHT22;3996;49.674;10.716;2023-01-10T14:38:36;6.40;51.60
7902;DHT22;3996;49.674;10.716;2023-01-10T14:41:21;6.50;51.40
7902;DHT22;3996;49.674;10.716;2023-01-10T14:44:07;6.40;51.20
7902;DHT22;3996;49.674;10.716;2023-01-10T14:46:48;6.40;51.30
7902;DHT22;3996;49.674;10.716;2023-01-10T14:49:34;6.40;51.30
7902;DHT22;3996;49.674;10.716;2023-01-10T14:54:36;6.40;51.10
7902;DHT22;3996;49.674;10.716;2023-01-10T14:57:02;6.40;50.50
7902;DHT22;3996;49.674;10.716;2023-01-10T15:02:01;6.30;51.00
7902;DHT22;3996;49.674;10.716;2023-01-10T15:04:29;6.40;51.30
7902;DHT22;3996;49.674;10.716;2023-01-10T15:07:17;6.40;51.30
7902;DHT22;3996;49.674;10.716;2023-01-10T15:09:52;6.40;51.30
7902;DHT22;3996;49.674;10.716;2023-01-10T15:12:20;6.40;51.00
7902;DHT22;3996;49.674;10.716;2023-01-10T15:14:48;6.40;51.60
7902;DHT22;3996;49.674;10.716;2023-01-10T15:17:16;6.40;51.30
7902;DHT22;3996;49.674;10.716;2023-01-10T15:19:45;6.30;52.10
7902;DHT22;3996;49.674;10.716;2023-01-10T15:25:02;6.30;51.20
7902;DHT22;3996;49.674;10.716;2023-01-10T15:27:30;6.30;51.30
7902;DHT22;3996;49.674;10.716;2023-01-10T15:29:57;6.20;50.70
7902;DHT22;3996;49.674;10.716;2023-01-10T15:32:36;6.20;50.30
7902;DHT22;3996;49.674;10.716;2023-01-10T15:35:06;6.20;50.90
7902;DHT22;3996;49.674;10.716;2023-01-10T15:37:37;6.20;50.40
7902;DHT22;3996;49.674;10.716;2023-01-10T15:40:07;6.20;50.30
7902;DHT22;3996;49.674;10.716;2023-01-10T15:42:43;6.20;51.50
7902;DHT22;3996;49.674;10.716;2023-01-10T15:45:29;6.20;49.70
7902;DHT22;3996;49.674;10.716;2023-01-10T15:48:02;6.20;49.60
7902;DHT22;3996;49.674;10.716;2023-01-10T15:50:36;6.20;49.30
7902;DHT22;3996;49.674;10.716;2023-01-10T15:53:08;6.30;49.20
7902;DHT22;3996;49.674;10.716;2023-01-10T15:55:35;6.30;49.40
7902;DHT22;3996;49.674;10.716;2023-01-10T15:58:03;6.20;48.80
7902;DHT22;3996;49.674;10.716;2023-01-10T16:00:29;6.20;48.80
7902;DHT22;3996;49.674;10.716;2023-01-10T16:02:55;6.20;49.40
7902;DHT22;3996;49.674;10.716;2023-01-10T16:05:21;6.10;49.00
7902;DHT22;3996;49.674;10.716;2023-01-10T16:07:48;6.10;49.00
7902;DHT22;3996;49.674;10.716;2023-01-10T16:10:25;5.90;49.50
7902;DHT22;3996;49.674;10.716;2023-01-10T16:12:51;5.90;49.80
7902;DHT22;3996;49.674;10.716;2023-01-10T16:15:38;5.90;50.00
7902;DHT22;3996;49.674;10.716;2023-01-10T16:18:04;5.90;50.00
7902;DHT22;3996;49.674;10.716;2023-01-10T16:20:39;5.90;50.10
7902;DHT22;3996;49.674;10.716;2023-01-10T16:23:21;5.90;50.00
7902;DHT22;3996;49.674;10.716;2023-01-10T16:26:08;5.80;49.80
7902;DHT22;3996;49.674;10.716;2023-01-10T16:28:33;5.80;49.50
7902;DHT22;3996;49.674;10.716;2023-01-10T16:31:01;5.70;50.20
7902;DHT22;3996;49.674;10.716;2023-01-10T16:33:27;5.70;49.80
7902;DHT22;3996;49.674;10.716;2023-01-10T16:35:55;5.60;49.90
7902;DHT22;3996;49.674;10.716;2023-01-10T16:38:22;5.60;50.60
7902;DHT22;3996;49.674;10.716;2023-01-10T16:41:09;5.50;50.50
7902;DHT22;3996;49.674;10.716;2023-01-10T16:43:53;5.50;50.60
7902;DHT22;3996;49.674;10.716;2023-01-10T16:46:19;5.50;50.80
7902;DHT22;3996;49.674;10.716;2023-01-10T16:48:45;5.50;50.40
7902;DHT22;3996;49.674;10.716;2023-01-10T16:51:20;5.50;49.90
7902;DHT22;3996;49.674;10.716;2023-01-10T16:53:46;5.50;50.50
7902;DHT22;3996;49.674;10.716;2023-01-10T16:56:18;5.60;50.30
7902;DHT22;3996;49.674;10.716;2023-01-10T16:58:46;5.50;50.50
7902;DHT22;3996;49.674;10.716;2023-01-10T17:01:39;5.50;50.50
7902;DHT22;3996;49.674;10.716;2023-01-10T17:04:07;5.50;50.50
7902;DHT22;3996;49.674;10.716;2023-01-10T17:06:33;5.40;50.90
7902;DHT22;3996;49.674;10.716;2023-01-10T17:09:00;5.20;52.20
7902;DHT22;3996;49.674;10.716;2023-01-10T17:11:31;5.00;52.60
7902;DHT22;3996;49.674;10.716;2023-01-10T17:13:58;4.90;53.60
7902;DHT22;3996;49.674;10.716;2023-01-10T17:16:24;4.90;54.70
7902;DHT22;3996;49.674;10.716;2023-01-10T17:18:50;5.00;54.30
7902;DHT22;3996;49.674;10.716;2023-01-10T17:21:18;5.00;52.90
7902;DHT22;3996;49.674;10.716;2023-01-10T17:23:45;5.10;52.90
7902;DHT22;3996;49.674;10.716;2023-01-10T17:26:12;5.10;52.60
7902;DHT22;3996;49.674;10.716;2023-01-10T17:28:39;5.10;52.30
7902;DHT22;3996;49.674;10.716;2023-01-10T17:31:05;5.10;51.80
7902;DHT22;3996;49.674;10.716;2023-01-10T17:33:31;5.10;52.50
7902;DHT22;3996;49.674;10.716;2023-01-10T17:35:57;5.10;52.00
7902;DHT22;3996;49.674;10.716;2023-01-10T17:38:23;5.10;52.00
7902;DHT22;3996;49.674;10.716;2023-01-10T17:40:50;5.00;52.30
7902;DHT22;3996;49.674;10.716;2023-01-10T17:43:17;5.00;52.40
7902;DHT22;3996;49.674;10.716;2023-01-10T17:45:50;4.90;52.50
7902;DHT22;3996;49.674;10.716;2023-01-10T17:48:17;5.00;52.50
7902;DHT22;3996;49.674;10.716;2023-01-10T17:50:47;5.00;52.30
7902;DHT22;3996;49.674;10.716;2023-01-10T17:53:15;5.00;52.40
7902;DHT22;3996;49.674;10.716;2023-01-10T17:55:45;5.10;52.30